createdAt,value
2022-10-12T00:01:04.116Z,6.10
2022-10-12T00:03:31.556Z,6.00
2022-10-12T00:06:02.363Z,6.00
2022-10-12T00:08:29.796Z,6.00
2022-10-12T00:10:57.229Z,6.10
2022-10-12T00:13:24.654Z,6.10
2022-10-12T00:15:52.048Z,6.00
2022-10-12T00:18:19.847Z,5.90
2022-10-12T00:20:47.306Z,5.80
2022-10-12T00:23:14.697Z,5.80
2022-10-12T00:25:42.163Z,5.70
2022-10-12T00:28:09.764Z,5.60
2022-10-12T00:30:39.713Z,5.60
2022-10-12T00:33:07.186Z,5.50
2022-10-12T00:35:34.641Z,5.50
2022-10-12T00:38:02.014Z,5.50
2022-10-12T00:40:29.463Z,5.50
2022-10-12T00:42:56.812Z,5.50
2022-10-12T00:45:24.883Z,5.50
2022-10-12T00:48:01.330Z,5.50
2022-10-12T00:50:34.196Z,5.40
2022-10-12T00:53:07.940Z,5.40
2022-10-12T00:55:38.523Z,5.40
2022-10-12T00:58:08.244Z,5.30
2022-10-12T01:00:37.588Z,5.40
2022-10-12T01:03:07.296Z,5.40
2022-10-12T01:05:34.917Z,5.40
2022-10-12T01:08:02.940Z,5.50
2022-10-12T01:10:30.335Z,5.50
2022-10-12T01:12:57.981Z,5.50
2022-10-12T01:15:28.017Z,5.50
2022-10-12T01:18:00.702Z,5.50
2022-10-12T01:20:28.135Z,5.50
2022-10-12T01:23:15.995Z,5.40
2022-10-12T01:25:49.436Z,5.50
2022-10-12T01:28:42.093Z,5.50
2022-10-12T01:31:26.543Z,5.40
2022-10-12T01:34:15.201Z,5.40
2022-10-12T01:36:47.276Z,5.30
2022-10-12T01:39:17.881Z,5.30
2022-10-12T01:41:47.505Z,5.30
2022-10-12T01:44:21.569Z,5.30
2022-10-12T01:46:49.701Z,5.30
2022-10-12T01:49:18.293Z,5.40
2022-10-12T01:51:48.692Z,5.40
2022-10-12T01:54:31.526Z,5.40
2022-10-12T01:57:02.110Z,5.50
2022-10-12T01:59:34.237Z,5.50
2022-10-12T02:02:26.649Z,5.40
2022-10-12T02:05:04.394Z,5.40
2022-10-12T02:07:38.521Z,5.40
2022-10-12T02:10:07.622Z,5.40
2022-10-12T02:12:35.812Z,5.50
2022-10-12T02:15:04.349Z,5.50
2022-10-12T02:17:32.496Z,5.60
2022-10-12T02:20:00.875Z,5.70
2022-10-12T02:22:34.150Z,5.80
2022-10-12T02:25:06.881Z,5.80
2022-10-12T02:27:36.502Z,5.90
2022-10-12T02:30:04.369Z,6.00
2022-10-12T02:32:37.532Z,6.10
2022-10-12T02:35:05.064Z,6.10
2022-10-12T02:37:35.882Z,6.10
2022-10-12T02:40:16.981Z,6.10
2022-10-12T02:43:09.422Z,6.20
2022-10-12T02:45:38.930Z,6.20
2022-10-12T02:48:07.309Z,6.20
2022-10-12T02:50:34.891Z,6.20
2022-10-12T02:53:02.507Z,6.10
2022-10-12T02:55:30.821Z,6.20
2022-10-12T02:57:58.281Z,6.20
2022-10-12T03:00:25.780Z,6.10
2022-10-12T03:02:53.234Z,6.20
2022-10-12T03:05:20.584Z,6.20
2022-10-12T03:07:47.989Z,6.30
2022-10-12T03:10:15.365Z,6.30
2022-10-12T03:12:46.511Z,6.40
2022-10-12T03:15:16.613Z,6.50
2022-10-12T03:17:43.956Z,6.60
2022-10-12T03:20:11.508Z,6.70
2022-10-12T03:22:39.019Z,6.70
2022-10-12T03:25:06.501Z,6.80
2022-10-12T03:27:33.805Z,6.80
2022-10-12T03:30:01.193Z,6.80
2022-10-12T03:32:28.653Z,6.80
2022-10-12T03:34:56.778Z,6.90
2022-10-12T03:37:24.259Z,7.00
2022-10-12T03:39:51.624Z,7.00
2022-10-12T03:42:19.023Z,7.10
2022-10-12T03:44:46.552Z,7.20
2022-10-12T03:47:14.123Z,7.20
2022-10-12T03:49:41.491Z,7.20
2022-10-12T03:52:09.032Z,7.20
2022-10-12T03:54:36.457Z,7.20
2022-10-12T03:57:03.935Z,7.20
2022-10-12T03:59:31.305Z,7.10
2022-10-12T04:01:58.701Z,7.10
2022-10-12T04:04:26.045Z,7.10
2022-10-12T04:06:53.419Z,7.10
2022-10-12T04:09:20.776Z,7.10
2022-10-12T04:11:48.109Z,7.20
2022-10-12T04:14:15.531Z,7.20
2022-10-12T04:16:42.917Z,7.30
2022-10-12T04:19:12.143Z,7.30
2022-10-12T04:21:39.861Z,7.30
2022-10-12T04:24:07.419Z,7.30
2022-10-12T04:26:34.935Z,7.30
2022-10-12T04:29:02.456Z,7.40
2022-10-12T04:31:30.757Z,7.40
2022-10-12T04:33:58.152Z,7.40
2022-10-12T04:36:26.250Z,7.40
2022-10-12T04:38:58.417Z,7.50
2022-10-12T04:41:28.343Z,7.50
2022-10-12T04:43:55.660Z,7.50
2022-10-12T04:46:23.266Z,7.60
2022-10-12T04:48:50.709Z,7.60
2022-10-12T04:51:18.055Z,7.70
2022-10-12T04:53:45.545Z,7.80
2022-10-12T04:56:12.915Z,7.80
2022-10-12T04:58:40.245Z,7.80
2022-10-12T05:01:07.696Z,7.80
2022-10-12T05:03:39.483Z,7.80
2022-10-12T05:06:09.369Z,7.80
2022-10-12T05:08:36.735Z,7.70
2022-10-12T05:11:04.350Z,7.60
2022-10-12T05:13:31.708Z,7.60
2022-10-12T05:15:59.088Z,7.60
2022-10-12T05:18:26.500Z,7.60
2022-10-12T05:20:56.974Z,7.60
2022-10-12T05:23:24.794Z,7.50
2022-10-12T05:25:54.154Z,7.50
2022-10-12T05:28:21.656Z,7.50
2022-10-12T05:30:49.863Z,7.50
2022-10-12T05:33:18.054Z,7.50
2022-10-12T05:35:48.314Z,7.50
2022-10-12T05:38:19.080Z,7.50
2022-10-12T05:40:46.424Z,7.60
2022-10-12T05:43:13.872Z,7.60
2022-10-12T05:45:42.434Z,7.60
2022-10-12T05:48:09.863Z,7.70
2022-10-12T05:50:37.266Z,7.70
2022-10-12T05:53:04.688Z,7.70
2022-10-12T05:55:32.229Z,7.80
2022-10-12T05:57:59.621Z,7.90
2022-10-12T06:00:27.068Z,7.90
2022-10-12T06:02:54.381Z,7.90
2022-10-12T06:05:21.932Z,8.00
2022-10-12T06:07:49.289Z,8.00
2022-10-12T06:10:16.679Z,8.00
2022-10-12T06:12:43.994Z,8.10
2022-10-12T06:15:11.355Z,8.10
2022-10-12T06:17:38.725Z,8.20
2022-10-12T06:20:06.327Z,8.20
2022-10-12T06:22:33.655Z,8.20
2022-10-12T06:25:01.039Z,8.20
2022-10-12T06:27:28.530Z,8.30
2022-10-12T06:29:56.007Z,8.30
2022-10-12T06:32:23.423Z,8.30
2022-10-12T06:34:50.764Z,8.30
2022-10-12T06:37:44.477Z,8.30
2022-10-12T06:40:06.177Z,8.30
2022-10-12T06:42:33.529Z,8.40
2022-10-12T06:45:01.085Z,8.40
2022-10-12T06:47:28.468Z,8.40
2022-10-12T06:49:55.986Z,8.40
2022-10-12T06:52:23.408Z,8.50
2022-10-12T06:54:50.886Z,8.50
2022-10-12T06:57:18.341Z,8.50
2022-10-12T06:59:45.801Z,8.50
2022-10-12T07:02:13.246Z,8.60
2022-10-12T07:04:40.628Z,8.60
2022-10-12T07:07:08.227Z,8.60
2022-10-12T07:09:35.647Z,8.60
2022-10-12T07:12:03.061Z,8.70
2022-10-12T07:14:30.647Z,8.80
2022-10-12T07:16:58.012Z,8.80
2022-10-12T07:19:25.384Z,8.90
2022-10-12T07:21:53.056Z,8.90
2022-10-12T07:24:20.604Z,9.00
2022-10-12T07:26:49.569Z,9.10
2022-10-12T07:29:17.136Z,9.20
2022-10-12T07:31:49.686Z,9.20
2022-10-12T07:34:19.342Z,9.30
2022-10-12T07:36:59.260Z,9.30
2022-10-12T07:39:28.150Z,9.40
2022-10-12T07:41:55.809Z,9.40
2022-10-12T07:44:24.638Z,9.40
2022-10-12T07:46:52.135Z,9.40
2022-10-12T07:49:19.618Z,9.50
2022-10-12T07:51:47.524Z,9.50
2022-10-12T07:54:19.890Z,9.60
2022-10-12T07:56:48.791Z,9.60
2022-10-12T07:59:16.171Z,9.70
2022-10-12T08:01:43.705Z,9.70
2022-10-12T08:04:11.213Z,9.80
2022-10-12T08:06:41.604Z,9.80
2022-10-12T08:09:09.273Z,9.80
2022-10-12T08:11:40.514Z,9.90
2022-10-12T08:14:12.821Z,9.90
2022-10-12T08:16:41.196Z,9.90
2022-10-12T08:19:08.688Z,10.00
2022-10-12T08:21:36.267Z,10.00
2022-10-12T08:24:03.877Z,10.00
2022-10-12T08:26:31.311Z,10.10
2022-10-12T08:28:58.673Z,10.10
2022-10-12T08:31:26.085Z,10.10
2022-10-12T08:33:53.460Z,10.20
2022-10-12T08:36:20.915Z,10.20
2022-10-12T08:38:54.186Z,10.20
2022-10-12T08:41:40.592Z,10.20
2022-10-12T08:44:16.470Z,10.20
2022-10-12T08:46:43.963Z,10.20
2022-10-12T08:49:16.898Z,10.20
2022-10-12T08:51:46.983Z,10.30
2022-10-12T08:54:15.575Z,10.30
2022-10-12T08:56:43.766Z,10.30
2022-10-12T08:59:15.163Z,10.40
2022-10-12T09:01:48.859Z,10.40
2022-10-12T09:04:35.222Z,10.50
2022-10-12T09:07:21.701Z,10.50
2022-10-12T09:09:49.109Z,10.60
2022-10-12T09:12:16.436Z,10.60
2022-10-12T09:14:45.409Z,10.70
2022-10-12T09:17:22.668Z,10.70
2022-10-12T09:19:59.528Z,10.80
2022-10-12T09:22:28.086Z,10.80
2022-10-12T09:24:57.004Z,10.80
2022-10-12T09:27:27.531Z,10.90
2022-10-12T09:29:57.526Z,11.00
2022-10-12T09:32:28.084Z,11.20
2022-10-12T09:34:55.562Z,11.20
2022-10-12T09:37:23.990Z,11.30
2022-10-12T09:39:52.055Z,11.40
2022-10-12T09:42:19.613Z,11.60
2022-10-12T09:44:48.567Z,11.70
2022-10-12T09:47:23.671Z,11.90
2022-10-12T09:49:52.008Z,12.00
2022-10-12T09:52:20.540Z,12.30
2022-10-12T09:54:49.339Z,12.50
2022-10-12T09:57:29.329Z,12.80
2022-10-12T09:59:57.639Z,12.90
2022-10-12T10:02:26.339Z,13.20
2022-10-12T10:04:54.911Z,13.30
2022-10-12T10:07:27.980Z,13.40
2022-10-12T10:10:19.216Z,13.50
2022-10-12T10:12:48.446Z,13.70
2022-10-12T10:15:29.572Z,13.70
2022-10-12T10:17:59.715Z,13.70
2022-10-12T10:20:27.171Z,13.70
2022-10-12T10:22:54.799Z,13.70
2022-10-12T10:25:23.175Z,13.70
2022-10-12T10:27:51.325Z,13.80
2022-10-12T10:30:40.729Z,13.80
2022-10-12T10:33:19.107Z,13.90
2022-10-12T10:36:00.645Z,14.10
2022-10-12T10:38:30.360Z,14.30
2022-10-12T10:40:58.707Z,14.50
2022-10-12T10:43:27.709Z,14.60
2022-10-12T10:45:57.180Z,14.60
2022-10-12T10:48:44.956Z,14.80
2022-10-12T10:51:12.421Z,15.00
2022-10-12T10:53:47.228Z,15.00
2022-10-12T10:56:22.083Z,14.90
2022-10-12T10:58:52.207Z,14.90
2022-10-12T11:01:24.849Z,14.80
2022-10-12T11:03:56.135Z,14.80
2022-10-12T11:06:30.851Z,14.60
2022-10-12T11:09:03.886Z,14.50
2022-10-12T11:11:32.836Z,14.50
2022-10-12T11:14:02.418Z,14.40
2022-10-12T11:16:32.802Z,14.40
2022-10-12T11:19:02.523Z,14.40
2022-10-12T11:21:39.032Z,14.50
2022-10-12T11:24:14.930Z,14.60
2022-10-12T11:26:45.650Z,14.70
2022-10-12T11:29:14.120Z,14.70
2022-10-12T11:31:44.376Z,14.70
2022-10-12T11:34:15.816Z,14.60
2022-10-12T11:37:01.115Z,14.70
2022-10-12T11:39:34.429Z,14.60
2022-10-12T11:42:20.992Z,14.50
2022-10-12T11:44:50.074Z,14.50
2022-10-12T11:47:20.278Z,14.50
2022-10-12T11:49:47.712Z,14.40
2022-10-12T11:52:15.709Z,14.30
2022-10-12T11:54:48.389Z,14.10
2022-10-12T11:57:21.613Z,13.90
2022-10-12T11:59:59.121Z,13.80
2022-10-12T12:02:32.350Z,13.70
2022-10-12T12:05:01.950Z,13.60
2022-10-12T12:07:49.116Z,13.50
2022-10-12T12:10:25.741Z,13.50
2022-10-12T12:13:12.825Z,13.60
2022-10-12T12:16:00.477Z,13.60
2022-10-12T12:18:33.829Z,13.70
2022-10-12T12:21:01.317Z,13.70
2022-10-12T12:23:52.400Z,13.70
2022-10-12T12:26:21.010Z,13.80
2022-10-12T12:28:49.726Z,13.80
2022-10-12T12:31:23.307Z,13.90
2022-10-12T12:34:00.507Z,14.00
2022-10-12T12:36:33.339Z,14.10
2022-10-12T12:39:02.004Z,14.20
2022-10-12T12:41:55.122Z,14.20
2022-10-12T12:44:34.805Z,14.30
2022-10-12T12:47:02.169Z,14.40
2022-10-12T12:49:39.287Z,14.40
2022-10-12T12:52:12.120Z,14.50
2022-10-12T12:55:05.703Z,14.40
2022-10-12T12:58:02.674Z,14.40
2022-10-12T13:00:38.168Z,14.30
2022-10-12T13:03:29.987Z,14.30
2022-10-12T13:06:03.369Z,14.30
2022-10-12T13:08:48.759Z,14.40
2022-10-12T13:11:22.299Z,14.40
2022-10-12T13:13:52.996Z,14.50
2022-10-12T13:19:29.027Z,14.40
2022-10-12T13:21:56.556Z,14.40
2022-10-12T13:24:26.214Z,14.40
2022-10-12T13:27:00.091Z,14.30
2022-10-12T13:29:29.242Z,14.30
2022-10-12T13:32:00.282Z,14.30
2022-10-12T13:34:31.475Z,14.30
2022-10-12T13:37:01.003Z,14.50
2022-10-12T13:39:28.913Z,14.60
2022-10-12T13:41:58.476Z,14.70
2022-10-12T13:44:36.873Z,14.80
2022-10-12T13:47:20.526Z,14.80
2022-10-12T13:49:48.217Z,14.80
2022-10-12T13:52:18.992Z,14.80
2022-10-12T13:54:48.675Z,14.80
2022-10-12T13:57:19.190Z,14.90
2022-10-12T13:59:47.461Z,15.00
2022-10-12T14:02:19.364Z,15.10
2022-10-12T14:04:46.792Z,15.10
2022-10-12T14:07:30.329Z,15.10
2022-10-12T14:09:59.709Z,15.10
2022-10-12T14:12:30.306Z,15.10
2022-10-12T14:14:58.485Z,15.10
2022-10-12T14:17:25.835Z,15.00
2022-10-12T14:19:53.914Z,14.90
2022-10-12T14:22:29.074Z,14.90
2022-10-12T14:25:26.201Z,14.80
2022-10-12T14:27:55.244Z,14.80
2022-10-12T14:30:24.558Z,14.80
2022-10-12T14:32:58.664Z,14.80
2022-10-12T14:35:29.181Z,14.80
2022-10-12T14:37:56.716Z,14.80
2022-10-12T14:40:27.096Z,14.80
2022-10-12T14:42:58.591Z,14.80
2022-10-12T14:45:26.628Z,14.80
2022-10-12T14:47:54.176Z,14.80
2022-10-12T14:50:22.293Z,14.80
2022-10-12T14:52:52.188Z,14.70
2022-10-12T14:55:22.016Z,14.70
2022-10-12T14:57:49.917Z,14.70
2022-10-12T15:00:22.097Z,14.60
2022-10-12T15:02:50.432Z,14.40
2022-10-12T15:05:19.280Z,14.30
2022-10-12T15:07:47.552Z,14.20
2022-10-12T15:10:15.877Z,14.00
2022-10-12T15:12:44.014Z,13.90
2022-10-12T15:15:17.490Z,13.80
2022-10-12T15:17:44.924Z,13.80
2022-10-12T15:20:12.307Z,13.80
2022-10-12T15:22:39.698Z,13.70
2022-10-12T15:25:16.840Z,13.80
2022-10-12T15:27:44.193Z,13.70
2022-10-12T15:30:11.865Z,13.70
2022-10-12T15:32:39.434Z,13.70
2022-10-12T15:35:23.978Z,13.60
2022-10-12T15:37:51.767Z,13.60
2022-10-12T15:40:20.270Z,13.50
2022-10-12T15:42:47.711Z,13.50
2022-10-12T15:45:18.645Z,13.40
2022-10-12T15:47:47.044Z,13.40
2022-10-12T15:50:15.051Z,13.40
2022-10-12T15:52:42.685Z,13.40
2022-10-12T15:55:17.508Z,13.40
2022-10-12T15:57:45.230Z,13.40
2022-10-12T16:00:12.984Z,13.40
2022-10-12T16:02:42.518Z,13.40
2022-10-12T16:05:24.268Z,13.50
2022-10-12T16:07:51.960Z,13.50
2022-10-12T16:10:21.711Z,13.50
2022-10-12T16:12:50.754Z,13.50
2022-10-12T16:15:25.738Z,13.50
2022-10-12T16:17:53.132Z,13.50
2022-10-12T16:20:20.619Z,13.50
2022-10-12T16:22:48.138Z,13.40
2022-10-12T16:25:17.187Z,13.40
2022-10-12T16:27:45.690Z,13.40
2022-10-12T16:30:13.348Z,13.30
2022-10-12T16:32:40.945Z,13.30
2022-10-12T16:35:08.724Z,13.20
2022-10-12T16:37:36.134Z,13.10
2022-10-12T16:40:05.225Z,13.00
2022-10-12T16:42:32.716Z,13.00
2022-10-12T16:45:00.348Z,12.90
2022-10-12T16:47:27.786Z,12.80
2022-10-12T16:49:55.140Z,12.80
2022-10-12T16:52:25.674Z,12.80
2022-10-12T16:54:54.284Z,12.70
2022-10-12T16:57:22.636Z,12.70
2022-10-12T16:59:50.418Z,12.70
2022-10-12T17:02:18.821Z,12.70
2022-10-12T17:04:46.746Z,12.80
2022-10-12T17:07:14.428Z,12.70
2022-10-12T17:09:42.015Z,12.70
2022-10-12T17:12:09.450Z,12.70
2022-10-12T17:14:37.153Z,12.80
2022-10-12T17:17:05.258Z,12.70
2022-10-12T17:19:34.026Z,12.70
2022-10-12T17:22:04.361Z,12.70
2022-10-12T17:24:32.923Z,12.70
2022-10-12T17:27:00.592Z,12.60
2022-10-12T17:29:29.100Z,12.60
2022-10-12T17:31:56.825Z,12.70
2022-10-12T17:34:34.825Z,12.60
2022-10-12T17:37:03.420Z,12.60
2022-10-12T17:39:32.307Z,12.70
2022-10-12T17:41:59.740Z,12.70
2022-10-12T17:44:27.180Z,12.60
2022-10-12T17:46:54.768Z,12.70
2022-10-12T17:49:25.024Z,12.70
2022-10-12T17:51:52.938Z,12.70
2022-10-12T17:54:20.924Z,12.70
2022-10-12T17:56:48.310Z,12.70
2022-10-12T17:59:16.798Z,12.80
2022-10-12T18:01:44.628Z,12.80
2022-10-12T18:04:12.368Z,12.80
2022-10-12T18:06:40.390Z,12.80
2022-10-12T18:09:08.938Z,12.80
2022-10-12T18:11:37.282Z,12.80
2022-10-12T18:14:05.397Z,12.80
2022-10-12T18:16:33.838Z,12.80
2022-10-12T18:19:02.232Z,12.80
2022-10-12T18:21:30.196Z,12.90
2022-10-12T18:24:00.533Z,12.90
2022-10-12T18:26:29.446Z,12.80
2022-10-12T18:28:59.143Z,12.80
2022-10-12T18:31:27.259Z,12.80
2022-10-12T18:33:55.257Z,12.80
2022-10-12T18:36:22.945Z,12.80
2022-10-12T18:38:50.413Z,12.80
2022-10-12T18:41:22.154Z,12.80
2022-10-12T18:43:50.172Z,12.70
2022-10-12T18:46:18.614Z,12.70
2022-10-12T18:48:46.174Z,12.70
2022-10-12T18:51:24.082Z,12.60
2022-10-12T18:53:51.935Z,12.60
2022-10-12T18:56:19.907Z,12.50
2022-10-12T18:58:47.469Z,12.50
2022-10-12T19:01:16.312Z,12.50
2022-10-12T19:03:43.984Z,12.50
2022-10-12T19:06:16.318Z,12.40
2022-10-12T19:08:43.976Z,12.40
2022-10-12T19:11:12.568Z,12.40
2022-10-12T19:13:40.863Z,12.30
2022-10-12T19:16:12.931Z,12.30
2022-10-12T19:18:41.381Z,12.20
2022-10-12T19:21:10.538Z,12.20
2022-10-12T19:23:38.371Z,12.20
2022-10-12T19:26:25.695Z,12.10
2022-10-12T19:28:54.238Z,12.10
2022-10-12T19:31:23.632Z,12.00
2022-10-12T19:33:51.143Z,12.00
2022-10-12T19:36:18.824Z,11.90
2022-10-12T19:38:46.448Z,11.90
2022-10-12T19:41:14.077Z,11.90
2022-10-12T19:43:43.196Z,11.90
2022-10-12T19:46:11.772Z,11.80
2022-10-12T19:48:39.878Z,11.80
2022-10-12T19:51:08.721Z,11.80
2022-10-12T19:53:36.615Z,11.80
2022-10-12T19:56:06.144Z,11.80
2022-10-12T19:58:33.751Z,11.80
2022-10-12T20:01:05.964Z,11.80
2022-10-12T20:03:34.175Z,11.70
2022-10-12T20:06:01.956Z,11.70
2022-10-12T20:08:29.409Z,11.70
2022-10-12T20:10:56.774Z,11.70
2022-10-12T20:13:24.122Z,11.70
2022-10-12T20:15:54.960Z,11.70
2022-10-12T20:18:22.682Z,11.60
2022-10-12T20:20:50.180Z,11.60
2022-10-12T20:23:17.920Z,11.60
2022-10-12T20:25:46.565Z,11.50
2022-10-12T20:28:14.048Z,11.50
2022-10-12T20:30:41.558Z,11.50
2022-10-12T20:33:09.570Z,11.50
2022-10-12T20:35:37.285Z,11.50
2022-10-12T20:38:04.676Z,11.50
2022-10-12T20:40:33.003Z,11.50
2022-10-12T20:43:00.427Z,11.50
2022-10-12T20:45:27.865Z,11.50
2022-10-12T20:47:55.218Z,11.40
2022-10-12T20:50:22.845Z,11.50
2022-10-12T20:52:50.306Z,11.50
2022-10-12T20:55:17.660Z,11.50
2022-10-12T20:57:45.024Z,11.40
2022-10-12T21:00:12.792Z,11.50
2022-10-12T21:02:40.530Z,11.40
2022-10-12T21:05:08.098Z,11.50
2022-10-12T21:07:36.086Z,11.50
2022-10-12T21:10:03.753Z,11.50
2022-10-12T21:12:31.235Z,11.50
2022-10-12T21:14:58.585Z,11.60
2022-10-12T21:17:26.045Z,11.60
2022-10-12T21:19:53.792Z,11.60
2022-10-12T21:22:21.440Z,11.60
2022-10-12T21:24:49.039Z,11.70
2022-10-12T21:27:16.490Z,11.70
2022-10-12T21:29:43.859Z,11.70
2022-10-12T21:32:11.329Z,11.70
2022-10-12T21:34:38.778Z,11.70
2022-10-12T21:37:06.226Z,11.70
2022-10-12T21:39:33.590Z,11.70
2022-10-12T21:42:00.969Z,11.60
2022-10-12T21:44:28.365Z,11.60
2022-10-12T21:46:55.768Z,11.60
2022-10-12T21:49:23.192Z,11.60
2022-10-12T21:51:50.607Z,11.50
2022-10-12T21:54:18.003Z,11.60
2022-10-12T21:56:45.428Z,11.50
2022-10-12T21:59:12.795Z,11.50
2022-10-12T22:01:42.217Z,11.50
2022-10-12T22:04:14.496Z,11.50
2022-10-12T22:06:43.195Z,11.40
2022-10-12T22:09:16.487Z,11.40
2022-10-12T22:11:44.061Z,11.40
2022-10-12T22:14:13.075Z,11.40
2022-10-12T22:16:40.849Z,11.40
2022-10-12T22:19:08.536Z,11.40
2022-10-12T22:21:36.567Z,11.40
2022-10-12T22:24:04.157Z,11.40
2022-10-12T22:26:31.730Z,11.40
2022-10-12T22:29:01.275Z,11.40
2022-10-12T22:31:29.078Z,11.40
2022-10-12T22:33:56.628Z,11.40
2022-10-12T22:36:24.023Z,11.30
2022-10-12T22:38:51.572Z,11.30
2022-10-12T22:41:20.060Z,11.30
2022-10-12T22:43:51.972Z,11.30
2022-10-12T22:46:19.800Z,11.30
2022-10-12T22:48:47.500Z,11.30
2022-10-12T22:51:25.674Z,11.20
2022-10-12T22:53:53.022Z,11.20
2022-10-12T22:56:20.569Z,11.20
2022-10-12T22:58:49.033Z,11.10
2022-10-12T23:01:17.213Z,11.10
2022-10-12T23:03:45.892Z,11.00
2022-10-12T23:06:15.639Z,11.00
2022-10-12T23:08:43.115Z,10.90
2022-10-12T23:11:12.127Z,10.90
2022-10-12T23:13:41.149Z,10.90
2022-10-12T23:16:13.172Z,10.80
2022-10-12T23:18:40.872Z,10.80
2022-10-12T23:21:09.693Z,10.80
2022-10-12T23:23:38.220Z,10.80
2022-10-12T23:26:10.158Z,10.70
2022-10-12T23:28:37.939Z,10.70
2022-10-12T23:31:10.010Z,10.70
2022-10-12T23:33:37.431Z,10.70
2022-10-12T23:36:06.379Z,10.70
2022-10-12T23:38:34.375Z,10.60
2022-10-12T23:41:02.328Z,10.60
2022-10-12T23:43:29.720Z,10.60
2022-10-12T23:46:02.273Z,10.60
2022-10-12T23:48:29.873Z,10.60
2022-10-12T23:50:57.282Z,10.60
2022-10-12T23:53:25.223Z,10.60
2022-10-12T23:55:52.990Z,10.60
2022-10-12T23:58:20.690Z,10.60
